Time;durP1;ratioP1;P1;durP2;ratioP2;P2;SDS_P1;SDS_P2;PMS_P1;PMS_P2;Temp;Humidity;BMP_temperature;BMP_pressure;BME280_temperature;BME280_humidity;BME280_pressure;Samples;Min_cycle;Max_cycle;Signal;HPM_P1;HPM_P2
2019/09/14 00:00:22;;;;;;;8.450001;7.65;;;;;;;14.43;100;96572.99;;;;
2019/09/14 00:01:25;;;;;;;7.900001;7.099999;;;;;;;14.4;100;96569.37;;;;
2019/09/14 00:02:26;;;;;;;7.900001;7.099999;;;;;;;14.4;100;96569.37;;;;
2019/09/14 00:03:28;;;;;;;8.349999;7.55;;;;;;;14.38;100;96564.69;;;;
2019/09/14 00:04:29;;;;;;;8.349999;7.55;;;;;;;14.38;100;96564.69;;;;
2019/09/14 00:05:31;;;;;;;8.349999;7.55;;;;;;;14.38;100;96564.69;;;;
2019/09/14 00:06:32;;;;;;;8.450001;7.050001;;;;;;;14.35;100;96564.73;;;;
2019/09/14 00:07:33;;;;;;;8.450001;7.050001;;;;;;;14.35;100;96564.73;;;;
2019/09/14 00:08:34;;;;;;;8.299999;7.35;;;;;;;14.32;100;96566.99;;;;
2019/09/14 00:09:36;;;;;;;8.299999;7.35;;;;;;;14.32;100;96566.99;;;;
2019/09/14 00:10:37;;;;;;;8.299999;7.35;;;;;;;14.32;100;96566.99;;;;
2019/09/14 00:11:38;;;;;;;7.999999;7;;;;;;;14.28;100;96565.22;;;;
2019/09/14 00:12:40;;;;;;;7.999999;7;;;;;;;14.28;100;96565.22;;;;
2019/09/14 00:13:41;;;;;;;7.749999;7;;;;;;;14.27;100;96563.16;;;;
2019/09/14 00:14:42;;;;;;;7.749999;7;;;;;;;14.27;100;96563.16;;;;
2019/09/14 00:15:43;;;;;;;7.749999;7;;;;;;;14.27;100;96563.16;;;;
2019/09/14 00:16:46;;;;;;;8.1;7.3;;;;;;;14.25;100;96564.42;;;;
2019/09/14 00:17:47;;;;;;;8.1;7.3;;;;;;;14.25;100;96564.42;;;;
2019/09/14 00:18:48;;;;;;;8.1;7.3;;;;;;;14.25;100;96564.42;;;;
2019/09/14 00:19:50;;;;;;;8.15;7.35;;;;;;;14.24;100;96564.53;;;;
2019/09/14 00:20:51;;;;;;;8.15;7.35;;;;;;;14.24;100;96564.53;;;;
2019/09/14 00:21:52;;;;;;;8.65;7.8;;;;;;;14.24;100;96565.47;;;;
2019/09/14 00:22:53;;;;;;;8.65;7.8;;;;;;;14.24;100;96565.47;;;;
2019/09/14 00:23:54;;;;;;;8.65;7.8;;;;;;;14.24;100;96565.47;;;;
2019/09/14 00:24:56;;;;;;;7.699999;7;;;;;;;14.24;100;96568.6;;;;
2019/09/14 00:25:57;;;;;;;7.699999;7;;;;;;;14.24;100;96568.6;;;;
2019/09/14 00:26:59;;;;;;;8.15;7.05;;;;;;;14.22;100;96567.47;;;;
2019/09/14 00:28:00;;;;;;;8.15;7.05;;;;;;;14.22;100;96567.47;;;;
2019/09/14 00:29:01;;;;;;;8.15;7.05;;;;;;;14.22;100;96567.47;;;;
2019/09/14 00:30:03;;;;;;;8.249999;7.400001;;;;;;;14.21;100;96568.52;;;;
2019/09/14 00:31:04;;;;;;;8.249999;7.400001;;;;;;;14.21;100;96568.52;;;;
2019/09/14 00:32:07;;;;;;;8.249999;7.400001;;;;;;;14.21;100;96568.52;;;;
2019/09/14 00:33:08;;;;;;;8.5;7.45;;;;;;;14.19;100;96566.16;;;;
2019/09/14 00:34:09;;;;;;;8.5;7.45;;;;;;;14.19;100;96566.16;;;;
2019/09/14 00:35:10;;;;;;;8.9;7.800001;;;;;;;14.17;100;96560.55;;;;
2019/09/14 00:36:12;;;;;;;8.9;7.800001;;;;;;;14.17;100;96560.55;;;;
2019/09/14 00:37:15;;;;;;;8.9;7.800001;;;;;;;14.17;100;96560.55;;;;
2019/09/14 00:38:17;;;;;;;8.300001;7.3;;;;;;;14.14;100;96558.67;;;;
2019/09/14 00:39:18;;;;;;;8.300001;7.3;;;;;;;14.14;100;96558.67;;;;
2019/09/14 00:40:19;;;;;;;8.299999;7.5;;;;;;;14.11;100;96559.66;;;;
2019/09/14 00:41:22;;;;;;;8.299999;7.5;;;;;;;14.11;100;96559.66;;;;
2019/09/14 00:42:23;;;;;;;8.299999;7.5;;;;;;;14.11;100;96559.66;;;;
2019/09/14 00:43:24;;;;;;;7.249999;6.600001;;;;;;;14.07;100;96556.15;;;;
2019/09/14 00:44:25;;;;;;;7.249999;6.600001;;;;;;;14.07;100;96556.15;;;;
2019/09/14 00:45:26;;;;;;;7.249999;6.600001;;;;;;;14.07;100;96556.15;;;;
2019/09/14 00:46:28;;;;;;;7.9;7.100001;;;;;;;14.05;100;96553.38;;;;
2019/09/14 00:47:29;;;;;;;7.9;7.100001;;;;;;;14.05;100;96553.38;;;;
2019/09/14 00:48:30;;;;;;;8.25;7.45;;;;;;;14.01;100;96554.88;;;;
2019/09/14 00:49:31;;;;;;;8.25;7.45;;;;;;;14.01;100;96554.88;;;;
2019/09/14 00:50:33;;;;;;;8.25;7.45;;;;;;;14.01;100;96554.88;;;;
2019/09/14 00:51:34;;;;;;;7.849999;7.149999;;;;;;;13.98;100;96557.92;;;;
2019/09/14 00:52:35;;;;;;;7.849999;7.149999;;;;;;;13.98;100;96557.92;;;;
2019/09/14 00:53:36;;;;;;;7.749999;6.95;;;;;;;13.96;100;96560.16;;;;
2019/09/14 00:54:38;;;;;;;7.749999;6.95;;;;;;;13.96;100;96560.16;;;;
2019/09/14 00:55:39;;;;;;;7.749999;6.95;;;;;;;13.96;100;96560.16;;;;
2019/09/14 00:56:40;;;;;;;7.4;6.699999;;;;;;;13.93;100;96566.44;;;;
2019/09/14 00:57:41;;;;;;;7.4;6.699999;;;;;;;13.93;100;96566.44;;;;
2019/09/14 00:58:42;;;;;;;7.800001;7.099999;;;;;;;13.9;100;96571.39;;;;
2019/09/14 00:59:43;;;;;;;7.800001;7.099999;;;;;;;13.9;100;96571.39;;;;
2019/09/14 01:00:44;;;;;;;7.800001;7.099999;;;;;;;13.9;100;96571.39;;;;
2019/09/14 01:02:42;;;;;;;8;7.05;;;;;;;13.87;100;96579.03;;;;
2019/09/14 01:03:43;;;;;;;8;7.05;;;;;;;13.87;100;96579.03;;;;
2019/09/14 01:04:45;;;;;;;10.35;6.95;;;;;;;13.85;100;96572.99;;;;
2019/09/14 01:05:46;;;;;;;10.35;6.95;;;;;;;13.85;100;96572.99;;;;
2019/09/14 01:06:48;;;;;;;7.2;6.500001;;;;;;;13.85;100;96568.11;;;;
2019/09/14 01:07:49;;;;;;;7.2;6.500001;;;;;;;13.85;100;96568.11;;;;
2019/09/14 01:08:50;;;;;;;7.2;6.500001;;;;;;;13.85;100;96568.11;;;;
2019/09/14 01:09:52;;;;;;;10.3;6.749999;;;;;;;13.85;100;96565.39;;;;
2019/09/14 01:10:53;;;;;;;10.3;6.749999;;;;;;;13.85;100;96565.39;;;;
2019/09/14 01:11:54;;;;;;;10.3;6.749999;;;;;;;13.85;100;96565.39;;;;
2019/09/14 01:12:55;;;;;;;10.3;6.749999;;;;;;;13.85;100;96565.39;;;;
2019/09/14 01:13:56;;;;;;;10.3;6.749999;;;;;;;13.85;100;96565.39;;;;
2019/09/14 01:14:58;;;;;;;10.3;6.749999;;;;;;;13.85;100;96565.39;;;;
2019/09/14 01:15:59;;;;;;;10.3;6.749999;;;;;;;13.85;100;96565.39;;;;
2019/09/14 01:17:00;;;;;;;10.3;6.749999;;;;;;;13.85;100;96565.39;;;;
2019/09/14 01:18:02;;;;;;;10.3;6.749999;;;;;;;13.85;100;96565.39;;;;
2019/09/14 01:19:03;;;;;;;10.3;6.749999;;;;;;;13.85;100;96565.39;;;;
2019/09/14 01:20:05;;;;;;;8.549999;7.250001;;;;;;;13.5;100;96564.17;;;;
2019/09/14 01:21:08;;;;;;;8.549999;7.250001;;;;;;;13.5;100;96564.17;;;;
2019/09/14 01:22:10;;;;;;;8.549999;7.250001;;;;;;;13.5;100;96564.17;;;;
2019/09/14 01:23:11;;;;;;;8.549999;7.400001;;;;;;;13.49;100;96558.54;;;;
2019/09/14 01:24:13;;;;;;;8.549999;7.400001;;;;;;;13.49;100;96558.54;;;;
2019/09/14 01:25:14;;;;;;;8.150002;7.349999;;;;;;;13.52;100;96567.6;;;;
2019/09/14 01:26:16;;;;;;;8.150002;7.349999;;;;;;;13.52;100;96567.6;;;;
2019/09/14 01:27:17;;;;;;;8.150002;7.349999;;;;;;;13.52;100;96567.6;;;;
2019/09/14 01:28:18;;;;;;;9.5;7.35;;;;;;;13.55;100;96567.13;;;;
2019/09/14 01:29:19;;;;;;;9.5;7.35;;;;;;;13.55;100;96567.13;;;;
2019/09/14 01:30:20;;;;;;;9.5;7.35;;;;;;;13.55;100;96567.13;;;;
2019/09/14 01:31:44;;;;;;;8.35;7.45;;;;;;;13.57;100;96567.75;;;;
2019/09/14 01:32:45;;;;;;;8.35;7.45;;;;;;;13.57;100;96567.75;;;;
2019/09/14 01:33:46;;;;;;;8.900001;8;;;;;;;13.58;100;96562.51;;;;
2019/09/14 01:34:47;;;;;;;8.900001;8;;;;;;;13.58;100;96562.51;;;;
2019/09/14 01:35:48;;;;;;;8.900001;8;;;;;;;13.58;100;96562.51;;;;
2019/09/14 01:36:50;;;;;;;8.299999;7.6;;;;;;;13.61;100;96566.67;;;;
2019/09/14 01:37:51;;;;;;;8.299999;7.6;;;;;;;13.61;100;96566.67;;;;
2019/09/14 01:38:52;;;;;;;9.75;7.35;;;;;;;13.65;100;96570.61;;;;
2019/09/14 01:39:53;;;;;;;9.75;7.35;;;;;;;13.65;100;96570.61;;;;
2019/09/14 01:40:54;;;;;;;9.75;7.35;;;;;;;13.65;100;96570.61;;;;
2019/09/14 01:41:56;;;;;;;8.15;7.3;;;;;;;13.7;100;96570.76;;;;
2019/09/14 01:42:57;;;;;;;8.15;7.3;;;;;;;13.7;100;96570.76;;;;
2019/09/14 01:43:58;;;;;;;8.450001;7.65;;;;;;;13.77;100;96572.04;;;;
2019/09/14 01:45:00;;;;;;;8.450001;7.65;;;;;;;13.77;100;96572.04;;;;
2019/09/14 01:46:01;;;;;;;8.450001;7.65;;;;;;;13.77;100;96572.04;;;;
2019/09/14 01:47:02;;;;;;;9.35;8.4;;;;;;;13.84;100;96569.98;;;;
2019/09/14 01:48:04;;;;;;;9.35;8.4;;;;;;;13.84;100;96569.98;;;;
2019/09/14 01:49:05;;;;;;;9.35;8.4;;;;;;;13.84;100;96569.98;;;;
2019/09/14 01:50:06;;;;;;;8.749999;7.95;;;;;;;13.92;100;96563.86;;;;
2019/09/14 01:51:08;;;;;;;8.749999;7.95;;;;;;;13.92;100;96563.86;;;;
2019/09/14 01:52:09;;;;;;;8.299999;7.5;;;;;;;14;100;96554.57;;;;
2019/09/14 01:53:11;;;;;;;8.299999;7.5;;;;;;;14;100;96554.57;;;;
2019/09/14 01:54:12;;;;;;;8.299999;7.5;;;;;;;14;100;96554.57;;;;
2019/09/14 01:55:13;;;;;;;8.000002;7.2;;;;;;;14.08;100;96556.05;;;;
2019/09/14 01:56:15;;;;;;;8.000002;7.2;;;;;;;14.08;100;96556.05;;;;
2019/09/14 01:57:16;;;;;;;8.000002;7.2;;;;;;;14.08;100;96556.05;;;;
2019/09/14 01:58:17;;;;;;;8.000002;7.2;;;;;;;14.08;100;96556.05;;;;
2019/09/14 01:59:18;;;;;;;8.000002;7.2;;;;;;;14.08;100;96556.05;;;;
2019/09/14 02:00:19;;;;;;;8.000002;7.2;;;;;;;14.08;100;96556.05;;;;
2019/09/14 02:01:27;;;;;;;8.000002;7.2;;;;;;;14.08;100;96556.05;;;;
2019/09/14 02:02:28;;;;;;;8.000002;7.2;;;;;;;14.08;100;96556.05;;;;
2019/09/14 02:03:29;;;;;;;8.000002;7.2;;;;;;;14.08;100;96556.05;;;;
2019/09/14 02:04:31;;;;;;;8.000002;7.2;;;;;;;14.08;100;96556.05;;;;
2019/09/14 02:05:32;;;;;;;8.699999;7.1;;;;;;;13.98;100;96547.58;;;;
2019/09/14 02:06:33;;;;;;;8.699999;7.1;;;;;;;13.98;100;96547.58;;;;
2019/09/14 02:07:35;;;;;;;8.699999;7.1;;;;;;;13.98;100;96547.58;;;;
2019/09/14 02:08:36;;;;;;;7.9;7.1;;;;;;;14.01;100;96537.23;;;;
2019/09/14 02:09:37;;;;;;;7.9;7.1;;;;;;;14.01;100;96537.23;;;;
2019/09/14 02:10:38;;;;;;;7.450001;6.749999;;;;;;;14.07;100;96535.78;;;;
2019/09/14 02:11:40;;;;;;;7.450001;6.749999;;;;;;;14.07;100;96535.78;;;;
2019/09/14 02:12:41;;;;;;;7.450001;6.749999;;;;;;;14.07;100;96535.78;;;;
2019/09/14 02:13:42;;;;;;;7.25;6.5;;;;;;;14.11;100;96530.63;;;;
2019/09/14 02:14:43;;;;;;;7.25;6.5;;;;;;;14.11;100;96530.63;;;;
2019/09/14 02:15:44;;;;;;;7.25;6.5;;;;;;;14.11;100;96530.63;;;;
2019/09/14 02:16:46;;;;;;;7.25;6.5;;;;;;;14.11;100;96530.63;;;;
2019/09/14 02:17:47;;;;;;;7.25;6.5;;;;;;;14.11;100;96530.63;;;;
2019/09/14 02:18:48;;;;;;;7.25;6.5;;;;;;;14.11;100;96530.63;;;;
2019/09/14 02:19:49;;;;;;;7.25;6.5;;;;;;;14.11;100;96530.63;;;;
2019/09/14 02:20:50;;;;;;;7.25;6.5;;;;;;;14.11;100;96530.63;;;;
2019/09/14 02:21:52;;;;;;;7.25;6.5;;;;;;;14.11;100;96530.63;;;;
2019/09/14 02:22:53;;;;;;;7.25;6.5;;;;;;;14.11;100;96530.63;;;;
2019/09/14 02:23:54;;;;;;;7.45;6.750001;;;;;;;13.73;100;96528.65;;;;
2019/09/14 02:24:55;;;;;;;7.45;6.750001;;;;;;;13.73;100;96528.65;;;;
2019/09/14 02:25:57;;;;;;;7.45;6.750001;;;;;;;13.73;100;96528.65;;;;
2019/09/14 02:26:58;;;;;;;7.899999;6.750001;;;;;;;13.68;100;96522.24;;;;
2019/09/14 02:27:59;;;;;;;7.899999;6.750001;;;;;;;13.68;100;96522.24;;;;
2019/09/14 02:29:00;;;;;;;7.4;6.6;;;;;;;13.69;100;96529.35;;;;
2019/09/14 02:30:02;;;;;;;7.4;6.6;;;;;;;13.69;100;96529.35;;;;
2019/09/14 02:31:04;;;;;;;7.4;6.6;;;;;;;13.69;100;96529.35;;;;
2019/09/14 02:32:05;;;;;;;7.5;6.85;;;;;;;13.68;100;96533.93;;;;
2019/09/14 02:33:06;;;;;;;7.5;6.85;;;;;;;13.68;100;96533.93;;;;
2019/09/14 02:34:09;;;;;;;7.5;6.85;;;;;;;13.68;100;96533.93;;;;
2019/09/14 02:35:10;;;;;;;7.5;6.85;;;;;;;13.68;100;96533.93;;;;
2019/09/14 02:36:12;;;;;;;7.5;6.85;;;;;;;13.68;100;96533.93;;;;
2019/09/14 02:37:13;;;;;;;7.5;6.85;;;;;;;13.68;100;96533.93;;;;
2019/09/14 02:38:14;;;;;;;7.5;6.85;;;;;;;13.68;100;96533.93;;;;
2019/09/14 02:39:17;;;;;;;7.5;6.85;;;;;;;13.68;100;96533.93;;;;
2019/09/14 02:40:18;;;;;;;7.5;6.85;;;;;;;13.68;100;96533.93;;;;
2019/09/14 02:41:21;;;;;;;7.5;6.85;;;;;;;13.68;100;96533.93;;;;
2019/09/14 02:42:22;;;;;;;8.35;7.25;;;;;;;13.32;100;96551.07;;;;
2019/09/14 02:43:23;;;;;;;8.35;7.25;;;;;;;13.32;100;96551.07;;;;
2019/09/14 02:44:24;;;;;;;8.35;7.25;;;;;;;13.32;100;96551.07;;;;
2019/09/14 02:45:25;;;;;;;8.150002;7.349999;;;;;;;13.31;100;96551.2;;;;
2019/09/14 02:46:27;;;;;;;8.150002;7.349999;;;;;;;13.31;100;96551.2;;;;
2019/09/14 02:47:29;;;;;;;8.150002;7.349999;;;;;;;13.31;100;96551.2;;;;
2019/09/14 02:48:30;;;;;;;8.150002;7.349999;;;;;;;13.31;100;96551.2;;;;
2019/09/14 02:49:31;;;;;;;8.150002;7.349999;;;;;;;13.31;100;96551.2;;;;
2019/09/14 02:50:32;;;;;;;8.150002;7.349999;;;;;;;13.31;100;96551.2;;;;
2019/09/14 02:51:33;;;;;;;8.150002;7.349999;;;;;;;13.31;100;96551.2;;;;
2019/09/14 02:52:34;;;;;;;8.150002;7.349999;;;;;;;13.31;100;96551.2;;;;
2019/09/14 02:53:36;;;;;;;8.150002;7.349999;;;;;;;13.31;100;96551.2;;;;
2019/09/14 02:54:37;;;;;;;8.150002;7.349999;;;;;;;13.31;100;96551.2;;;;
2019/09/14 02:55:38;;;;;;;7.799999;7;;;;;;;13.19;100;96563.79;;;;
2019/09/14 02:56:39;;;;;;;7.799999;7;;;;;;;13.19;100;96563.79;;;;
2019/09/14 02:57:41;;;;;;;7.799999;7;;;;;;;13.19;100;96563.79;;;;
2019/09/14 02:58:42;;;;;;;8.4;7.450001;;;;;;;13.23;100;96557.4;;;;
2019/09/14 02:59:43;;;;;;;8.4;7.450001;;;;;;;13.23;100;96557.4;;;;
2019/09/14 03:00:44;;;;;;;8.4;7.450001;;;;;;;13.23;100;96557.4;;;;
2019/09/14 03:01:46;;;;;;;8.4;7.450001;;;;;;;13.23;100;96557.4;;;;
2019/09/14 03:02:47;;;;;;;8.4;7.450001;;;;;;;13.23;100;96557.4;;;;
2019/09/14 03:03:48;;;;;;;8.4;7.450001;;;;;;;13.23;100;96557.4;;;;
2019/09/14 03:04:49;;;;;;;8.4;7.450001;;;;;;;13.23;100;96557.4;;;;
2019/09/14 03:05:50;;;;;;;8.4;7.450001;;;;;;;13.23;100;96557.4;;;;
2019/09/14 03:06:51;;;;;;;8.4;7.450001;;;;;;;13.23;100;96557.4;;;;
2019/09/14 03:07:53;;;;;;;8.4;7.450001;;;;;;;13.23;100;96557.4;;;;
2019/09/14 03:08:54;;;;;;;8.149999;7.45;;;;;;;13.04;100;96546.62;;;;
2019/09/14 03:09:55;;;;;;;8.149999;7.45;;;;;;;13.04;100;96546.62;;;;
2019/09/14 03:10:56;;;;;;;8.149999;7.45;;;;;;;13.04;100;96546.62;;;;
2019/09/14 03:11:57;;;;;;;8.450001;7.4;;;;;;;13.02;100;96539.09;;;;
2019/09/14 03:12:59;;;;;;;8.450001;7.4;;;;;;;13.02;100;96539.09;;;;
2019/09/14 03:14:00;;;;;;;8.049999;7.35;;;;;;;13.06;100;96538.55;;;;
2019/09/14 03:15:01;;;;;;;8.049999;7.35;;;;;;;13.06;100;96538.55;;;;
2019/09/14 03:16:02;;;;;;;8.049999;7.35;;;;;;;13.06;100;96538.55;;;;
2019/09/14 03:17:04;;;;;;;7.45;6.75;;;;;;;13.08;100;96542.3;;;;
2019/09/14 03:18:05;;;;;;;7.45;6.75;;;;;;;13.08;100;96542.3;;;;
2019/09/14 03:19:07;;;;;;;7.45;6.75;;;;;;;13.08;100;96542.3;;;;
2019/09/14 03:20:08;;;;;;;7.45;6.75;;;;;;;13.08;100;96542.3;;;;
2019/09/14 03:21:10;;;;;;;7.45;6.75;;;;;;;13.08;100;96542.3;;;;
2019/09/14 03:22:11;;;;;;;7.45;6.75;;;;;;;13.08;100;96542.3;;;;
2019/09/14 03:23:12;;;;;;;7.45;6.75;;;;;;;13.08;100;96542.3;;;;
2019/09/14 03:24:13;;;;;;;7.45;6.75;;;;;;;13.08;100;96542.3;;;;
2019/09/14 03:25:15;;;;;;;7.45;6.75;;;;;;;13.08;100;96542.3;;;;
2019/09/14 03:26:16;;;;;;;7.45;6.75;;;;;;;13.08;100;96542.3;;;;
2019/09/14 03:27:17;;;;;;;8.200001;7.450001;;;;;;;12.74;100;96540.53;;;;
2019/09/14 03:28:19;;;;;;;8.200001;7.450001;;;;;;;12.74;100;96540.53;;;;
2019/09/14 03:29:20;;;;;;;8.200001;7.450001;;;;;;;12.74;100;96540.53;;;;
2019/09/14 03:30:21;;;;;;;9.25;8.350001;;;;;;;12.72;100;96539.39;;;;
2019/09/14 03:31:24;;;;;;;9.25;8.350001;;;;;;;12.72;100;96539.39;;;;
2019/09/14 03:32:25;;;;;;;9.25;8.350001;;;;;;;12.72;100;96539.39;;;;
2019/09/14 03:33:26;;;;;;;9.25;8.350001;;;;;;;12.72;100;96539.39;;;;
2019/09/14 03:34:27;;;;;;;9.25;8.350001;;;;;;;12.72;100;96539.39;;;;
2019/09/14 03:35:28;;;;;;;9.25;8.350001;;;;;;;12.72;100;96539.39;;;;
2019/09/14 03:36:33;;;;;;;9.25;8.350001;;;;;;;12.72;100;96539.39;;;;
2019/09/14 03:37:34;;;;;;;9.25;8.350001;;;;;;;12.72;100;96539.39;;;;
2019/09/14 03:38:36;;;;;;;9.25;8.350001;;;;;;;12.72;100;96539.39;;;;
2019/09/14 03:39:37;;;;;;;9.25;8.350001;;;;;;;12.72;100;96539.39;;;;
2019/09/14 03:40:39;;;;;;;8.999999;8.150001;;;;;;;12.48;100;96537.86;;;;
2019/09/14 03:41:40;;;;;;;8.999999;8.150001;;;;;;;12.48;100;96537.86;;;;
2019/09/14 03:42:41;;;;;;;8.999999;8.150001;;;;;;;12.48;100;96537.86;;;;
2019/09/14 03:43:42;;;;;;;8.949998;8.050001;;;;;;;12.49;100;96540.48;;;;
2019/09/14 03:44:43;;;;;;;8.949998;8.050001;;;;;;;12.49;100;96540.48;;;;
2019/09/14 03:45:44;;;;;;;8.949998;8.050001;;;;;;;12.49;100;96540.48;;;;
2019/09/14 03:46:51;;;;;;;8.949998;8.050001;;;;;;;12.49;100;96540.48;;;;
2019/09/14 03:47:52;;;;;;;8.949998;8.050001;;;;;;;12.49;100;96540.48;;;;
2019/09/14 03:48:53;;;;;;;8.949998;8.050001;;;;;;;12.49;100;96540.48;;;;
2019/09/14 03:49:55;;;;;;;8.949998;8.050001;;;;;;;12.49;100;96540.48;;;;
2019/09/14 03:50:56;;;;;;;8.949998;8.050001;;;;;;;12.49;100;96540.48;;;;
2019/09/14 03:51:58;;;;;;;8.949998;8.050001;;;;;;;12.49;100;96540.48;;;;
2019/09/14 03:52:59;;;;;;;8.949998;8.050001;;;;;;;12.49;100;96540.48;;;;
2019/09/14 03:54:00;;;;;;;9.549999;8.649999;;;;;;;12.3;100;96536.94;;;;
2019/09/14 03:55:01;;;;;;;9.549999;8.649999;;;;;;;12.3;100;96536.94;;;;
2019/09/14 03:56:03;;;;;;;9.549999;8.649999;;;;;;;12.3;100;96536.94;;;;
2019/09/14 03:57:04;;;;;;;9.65;8.700001;;;;;;;12.32;100;96528.5;;;;
2019/09/14 03:58:05;;;;;;;9.65;8.700001;;;;;;;12.32;100;96528.5;;;;
2019/09/14 03:59:06;;;;;;;9.65;8.700001;;;;;;;12.32;100;96528.5;;;;
2019/09/14 04:00:07;;;;;;;9.65;8.700001;;;;;;;12.32;100;96528.5;;;;
2019/09/14 04:01:10;;;;;;;9.65;8.700001;;;;;;;12.32;100;96528.5;;;;
2019/09/14 04:02:11;;;;;;;9.65;8.700001;;;;;;;12.32;100;96528.5;;;;
2019/09/14 04:03:13;;;;;;;9.65;8.700001;;;;;;;12.32;100;96528.5;;;;
2019/09/14 04:04:14;;;;;;;9.65;8.700001;;;;;;;12.32;100;96528.5;;;;
2019/09/14 04:05:15;;;;;;;9.65;8.700001;;;;;;;12.32;100;96528.5;;;;
2019/09/14 04:06:18;;;;;;;9.65;8.700001;;;;;;;12.32;100;96528.5;;;;
2019/09/14 04:07:19;;;;;;;10.35;8.349999;;;;;;;12.16;100;96516.78;;;;
2019/09/14 04:08:20;;;;;;;10.35;8.349999;;;;;;;12.16;100;96516.78;;;;
2019/09/14 04:09:21;;;;;;;10.35;8.349999;;;;;;;12.16;100;96516.78;;;;
2019/09/14 04:10:22;;;;;;;9.45;8.6;;;;;;;12.18;100;96512.53;;;;
2019/09/14 04:11:24;;;;;;;9.45;8.6;;;;;;;12.18;100;96512.53;;;;
2019/09/14 04:12:25;;;;;;;9.45;8.6;;;;;;;12.18;100;96512.53;;;;
2019/09/14 04:13:27;;;;;;;9.45;8.6;;;;;;;12.18;100;96512.53;;;;
2019/09/14 04:14:28;;;;;;;9.45;8.6;;;;;;;12.18;100;96512.53;;;;
2019/09/14 04:15:29;;;;;;;9.45;8.6;;;;;;;12.18;100;96512.53;;;;
2019/09/14 04:16:51;;;;;;;9.45;8.6;;;;;;;12.18;100;96512.53;;;;
2019/09/14 04:17:52;;;;;;;9.45;8.6;;;;;;;12.18;100;96512.53;;;;
2019/09/14 04:18:53;;;;;;;9.45;8.6;;;;;;;12.18;100;96512.53;;;;
2019/09/14 04:19:58;;;;;;;9.45;8.6;;;;;;;12.18;100;96512.53;;;;
2019/09/14 04:20:59;;;;;;;10.8;9.849999;;;;;;;12.14;100;96514.84;;;;
2019/09/14 04:22:00;;;;;;;10.8;9.849999;;;;;;;12.14;100;96514.84;;;;
2019/09/14 04:23:01;;;;;;;12.5;11.3;;;;;;;12.24;100;96515.62;;;;
2019/09/14 04:24:02;;;;;;;12.5;11.3;;;;;;;12.24;100;96515.62;;;;
2019/09/14 04:25:04;;;;;;;12.5;11.3;;;;;;;12.24;100;96515.62;;;;
2019/09/14 04:26:06;;;;;;;12.5;11.3;;;;;;;12.24;100;96515.62;;;;
2019/09/14 04:27:07;;;;;;;12.5;11.3;;;;;;;12.24;100;96515.62;;;;
2019/09/14 04:28:09;;;;;;;12.5;11.3;;;;;;;12.24;100;96515.62;;;;
2019/09/14 04:29:10;;;;;;;12.5;11.3;;;;;;;12.24;100;96515.62;;;;
2019/09/14 04:30:11;;;;;;;12.5;11.3;;;;;;;12.24;100;96515.62;;;;
2019/09/14 04:31:13;;;;;;;12.5;11.3;;;;;;;12.24;100;96515.62;;;;
2019/09/14 04:32:14;;;;;;;12.5;11.3;;;;;;;12.24;100;96515.62;;;;
2019/09/14 04:33:15;;;;;;;12.5;11.3;;;;;;;12.24;100;96515.62;;;;
2019/09/14 04:34:16;;;;;;;12;10.9;;;;;;;12.54;100;96501.37;;;;
2019/09/14 04:35:17;;;;;;;12;10.9;;;;;;;12.54;100;96501.37;;;;
2019/09/14 04:36:24;;;;;;;11.1;10.2;;;;;;;12.67;100;96504.52;;;;
2019/09/14 04:37:28;;;;;;;11.1;10.2;;;;;;;12.67;100;96504.52;;;;
2019/09/14 04:38:29;;;;;;;11.1;10.2;;;;;;;12.67;100;96504.52;;;;
2019/09/14 04:39:30;;;;;;;11.1;10.2;;;;;;;12.67;100;96504.52;;;;
2019/09/14 04:40:32;;;;;;;11.1;10.2;;;;;;;12.67;100;96504.52;;;;
2019/09/14 04:41:33;;;;;;;11.1;10.2;;;;;;;12.67;100;96504.52;;;;
2019/09/14 04:42:35;;;;;;;11.1;10.2;;;;;;;12.67;100;96504.52;;;;
2019/09/14 04:43:37;;;;;;;11.1;10.2;;;;;;;12.67;100;96504.52;;;;
2019/09/14 04:44:38;;;;;;;11.1;10.2;;;;;;;12.67;100;96504.52;;;;
2019/09/14 04:45:39;;;;;;;11.1;10.2;;;;;;;12.67;100;96504.52;;;;
2019/09/14 04:46:40;;;;;;;11.1;10.2;;;;;;;12.67;100;96504.52;;;;
2019/09/14 04:47:41;;;;;;;11.8;10.7;;;;;;;12.98;100;96518.05;;;;
2019/09/14 04:48:42;;;;;;;11.8;10.7;;;;;;;12.98;100;96518.05;;;;
2019/09/14 04:49:44;;;;;;;11.95;10.9;;;;;;;13.1;100;96531.22;;;;
2019/09/14 04:50:45;;;;;;;11.95;10.9;;;;;;;13.1;100;96531.22;;;;
2019/09/14 04:55:53;;;;;;;11.95;10.9;;;;;;;13.1;100;96531.22;;;;
2019/09/14 04:56:54;;;;;;;11.95;10.9;;;;;;;13.1;100;96531.22;;;;
2019/09/14 04:57:55;;;;;;;11.95;10.9;;;;;;;13.1;100;96531.22;;;;
2019/09/14 04:58:56;;;;;;;11.95;10.9;;;;;;;13.1;100;96531.22;;;;
2019/09/14 04:59:57;;;;;;;11.95;10.9;;;;;;;13.1;100;96531.22;;;;
2019/09/14 05:00:59;;;;;;;11.7;10.6;;;;;;;13.3;100;96530.95;;;;
2019/09/14 05:02:00;;;;;;;11.7;10.6;;;;;;;13.3;100;96530.95;;;;
2019/09/14 05:03:01;;;;;;;11.7;10.6;;;;;;;13.3;100;96530.95;;;;
2019/09/14 05:04:02;;;;;;;11.7;10.6;;;;;;;13.3;100;96530.95;;;;
2019/09/14 05:05:04;;;;;;;11.7;10.6;;;;;;;13.3;100;96530.95;;;;
2019/09/14 05:06:05;;;;;;;11.7;10.6;;;;;;;13.3;100;96530.95;;;;
2019/09/14 05:07:06;;;;;;;11.7;10.6;;;;;;;13.3;100;96530.95;;;;
2019/09/14 05:08:08;;;;;;;11.7;10.6;;;;;;;13.3;100;96530.95;;;;
2019/09/14 05:09:09;;;;;;;11.7;10.6;;;;;;;13.3;100;96530.95;;;;
2019/09/14 05:10:10;;;;;;;11.7;10.6;;;;;;;13.3;100;96530.95;;;;
2019/09/14 05:11:12;;;;;;;16.1;10.5;;;;;;;13.46;100;96535.39;;;;
2019/09/14 05:12:13;;;;;;;16.1;10.5;;;;;;;13.46;100;96535.39;;;;
2019/09/14 05:13:14;;;;;;;16.1;10.5;;;;;;;13.46;100;96535.39;;;;
2019/09/14 05:14:16;;;;;;;16.1;10.5;;;;;;;13.46;100;96535.39;;;;
2019/09/14 05:15:18;;;;;;;16.1;10.5;;;;;;;13.46;100;96535.39;;;;
2019/09/14 05:16:20;;;;;;;16.1;10.5;;;;;;;13.46;100;96535.39;;;;
2019/09/14 05:17:21;;;;;;;16.1;10.5;;;;;;;13.46;100;96535.39;;;;
2019/09/14 05:18:23;;;;;;;16.1;10.5;;;;;;;13.46;100;96535.39;;;;
2019/09/14 05:19:24;;;;;;;16.1;10.5;;;;;;;13.46;100;96535.39;;;;
2019/09/14 05:20:25;;;;;;;16.1;10.5;;;;;;;13.46;100;96535.39;;;;
2019/09/14 05:21:27;;;;;;;12.2;10.9;;;;;;;13.53;100;96533.44;;;;
2019/09/14 05:22:28;;;;;;;12.2;10.9;;;;;;;13.53;100;96533.44;;;;
2019/09/14 05:23:29;;;;;;;12.2;10.9;;;;;;;13.53;100;96533.44;;;;
2019/09/14 05:24:30;;;;;;;12.8;11.65;;;;;;;13.6;100;96531.91;;;;
2019/09/14 05:25:31;;;;;;;12.8;11.65;;;;;;;13.6;100;96531.91;;;;
2019/09/14 05:26:33;;;;;;;12.8;11.65;;;;;;;13.6;100;96531.91;;;;
2019/09/14 05:27:34;;;;;;;12.8;11.65;;;;;;;13.6;100;96531.91;;;;
2019/09/14 05:28:35;;;;;;;12.8;11.65;;;;;;;13.6;100;96531.91;;;;
2019/09/14 05:29:36;;;;;;;12.8;11.65;;;;;;;13.6;100;96531.91;;;;
2019/09/14 05:30:45;;;;;;;12.8;11.65;;;;;;;13.6;100;96531.91;;;;
2019/09/14 05:35:23;;;;;;;10.9;9.950002;;;;;;;13.73;100;96536.8;;;;
2019/09/14 05:36:24;;;;;;;10.9;9.950002;;;;;;;13.73;100;96536.8;;;;
2019/09/14 05:37:26;;;;;;;10.9;9.950002;;;;;;;13.73;100;96536.8;;;;
2019/09/14 05:38:27;;;;;;;10.9;9.950002;;;;;;;13.73;100;96536.8;;;;
2019/09/14 05:39:28;;;;;;;10.9;9.950002;;;;;;;13.73;100;96536.8;;;;
2019/09/14 05:40:29;;;;;;;10.9;9.950002;;;;;;;13.73;100;96536.8;;;;
2019/09/14 05:41:39;;;;;;;10.9;9.950002;;;;;;;13.73;100;96536.8;;;;
2019/09/14 05:42:41;;;;;;;10.9;9.950002;;;;;;;13.73;100;96536.8;;;;
2019/09/14 05:43:42;;;;;;;10.9;9.950002;;;;;;;13.73;100;96536.8;;;;
2019/09/14 05:44:43;;;;;;;10.9;9.950002;;;;;;;13.73;100;96536.8;;;;
2019/09/14 05:45:44;;;;;;;12.1;11;;;;;;;13.97;100;96526.51;;;;
2019/09/14 05:46:45;;;;;;;12.1;11;;;;;;;13.97;100;96526.51;;;;
2019/09/14 05:47:46;;;;;;;12.1;11;;;;;;;13.97;100;96526.51;;;;
2019/09/14 05:48:47;;;;;;;12.1;11;;;;;;;13.97;100;96526.51;;;;
2019/09/14 05:49:49;;;;;;;12.1;11;;;;;;;13.97;100;96526.51;;;;
2019/09/14 05:50:50;;;;;;;12.1;11;;;;;;;13.97;100;96526.51;;;;
2019/09/14 05:51:51;;;;;;;12.1;11;;;;;;;13.97;100;96526.51;;;;
2019/09/14 05:52:52;;;;;;;12.1;11;;;;;;;13.97;100;96526.51;;;;
2019/09/14 05:53:53;;;;;;;12.1;11;;;;;;;13.97;100;96526.51;;;;
2019/09/14 05:54:55;;;;;;;12.1;11;;;;;;;13.97;100;96526.51;;;;
2019/09/14 05:55:56;;;;;;;11.3;10.2;;;;;;;14.32;100;96540.75;;;;
2019/09/14 05:56:57;;;;;;;11.3;10.2;;;;;;;14.32;100;96540.75;;;;
2019/09/14 05:57:58;;;;;;;11.3;10.2;;;;;;;14.32;100;96540.75;;;;
2019/09/14 05:58:59;;;;;;;13.15;11.7;;;;;;;14.52;100;96556.67;;;;
2019/09/14 06:00:01;;;;;;;13.15;11.7;;;;;;;14.52;100;96556.67;;;;
2019/09/14 06:01:04;;;;;;;13.15;11.7;;;;;;;14.52;100;96556.67;;;;
2019/09/14 06:02:05;;;;;;;13.15;11.7;;;;;;;14.52;100;96556.67;;;;
2019/09/14 06:03:07;;;;;;;13.15;11.7;;;;;;;14.52;100;96556.67;;;;
2019/09/14 06:04:10;;;;;;;13.15;11.7;;;;;;;14.52;100;96556.67;;;;
2019/09/14 06:05:11;;;;;;;13.15;11.7;;;;;;;14.52;100;96556.67;;;;
2019/09/14 06:06:13;;;;;;;13.15;11.7;;;;;;;14.52;100;96556.67;;;;
2019/09/14 06:07:14;;;;;;;13.15;11.7;;;;;;;14.52;100;96556.67;;;;
2019/09/14 06:08:16;;;;;;;13.15;11.7;;;;;;;14.52;100;96556.67;;;;
2019/09/14 06:09:17;;;;;;;15.25;13.95;;;;;;;15.21;100;96566.44;;;;
2019/09/14 06:10:18;;;;;;;15.25;13.95;;;;;;;15.21;100;96566.44;;;;
2019/09/14 06:11:29;;;;;;;15.25;13.95;;;;;;;15.21;100;96566.44;;;;